createdAt,value
2022-09-26T00:00:21.318Z,99525.88
2022-09-26T00:01:28.784Z,99516.81
2022-09-26T00:02:30.730Z,99530.91
2022-09-26T00:03:33.097Z,99444.50
2022-09-26T00:04:34.749Z,99543.09
2022-09-26T00:05:40.214Z,99443.75
2022-09-26T00:06:43.052Z,99502.84
2022-09-26T00:07:44.589Z,99525.44
2022-09-26T00:08:47.576Z,99515.75
2022-09-26T00:09:49.189Z,99533.06
2022-09-26T00:10:58.134Z,99484.19
2022-09-26T00:11:59.812Z,99489.28
2022-09-26T00:13:01.452Z,99513.56
2022-09-26T00:14:10.609Z,99514.69
2022-09-26T00:15:12.313Z,99528.63
2022-09-26T00:16:15.376Z,99519.69
2022-09-26T00:17:17.165Z,99469.81
2022-09-26T00:18:18.913Z,99507.94
2022-09-26T00:19:21.722Z,99446.09
2022-09-26T00:20:23.258Z,99537.06
2022-09-26T00:21:26.637Z,99443.88
2022-09-26T00:22:30.358Z,99369.16
2022-09-26T00:23:32.523Z,99427.53
2022-09-26T00:24:34.074Z,99503.13
2022-09-26T00:25:35.678Z,99521.25
2022-09-26T00:26:37.784Z,99486.22
2022-09-26T00:27:48.305Z,99480.34
2022-09-26T00:28:50.620Z,99504.94
2022-09-26T00:29:52.276Z,99495.69
2022-09-26T00:30:54.589Z,99502.53
2022-09-26T00:31:57.313Z,99521.28
2022-09-26T00:32:58.820Z,99486.47
2022-09-26T00:34:00.815Z,99447.75
2022-09-26T00:35:02.416Z,99501.34
2022-09-26T00:36:05.564Z,99503.13
2022-09-26T00:37:14.135Z,99482.34
2022-09-26T00:38:16.907Z,99513.81
2022-09-26T00:39:18.461Z,99420.94
2022-09-26T00:40:29.150Z,99402.63
2022-09-26T00:41:30.943Z,99471.41
2022-09-26T00:42:32.467Z,99490.31
2022-09-26T00:44:03.027Z,99481.38
2022-09-26T00:45:05.134Z,99500.63
2022-09-26T00:46:35.895Z,99479.66
2022-09-26T00:47:52.135Z,99486.50
2022-09-26T00:49:31.353Z,99485.69
2022-09-26T00:50:37.718Z,99485.69
2022-09-26T00:51:42.538Z,99482.13
2022-09-26T00:52:53.864Z,99467.00
2022-09-26T00:53:58.704Z,99452.47
2022-09-26T00:55:09.150Z,99480.09
2022-09-26T00:56:17.354Z,99474.44
2022-09-26T00:57:29.489Z,99488.66
2022-09-26T00:58:41.122Z,99449.50
2022-09-26T00:59:48.470Z,99480.63
2022-09-26T01:00:59.170Z,99449.94
2022-09-26T01:02:02.253Z,99451.53
2022-09-26T01:03:04.041Z,99491.63
2022-09-26T01:04:06.372Z,99361.56
2022-09-26T01:05:12.755Z,99472.56
2022-09-26T01:06:17.999Z,99446.78
2022-09-26T01:07:26.539Z,99446.16
2022-09-26T01:08:36.702Z,99479.50
2022-09-26T01:09:39.356Z,99449.53
2022-09-26T01:10:41.115Z,99471.25
2022-09-26T01:11:44.639Z,99448.84
2022-09-26T01:12:46.839Z,99468.19
2022-09-26T01:13:50.996Z,99468.38
2022-09-26T01:14:54.682Z,99446.94
2022-09-26T01:15:56.370Z,99467.00
2022-09-26T01:16:57.921Z,99467.94
2022-09-26T01:18:00.475Z,99480.06
2022-09-26T01:19:07.385Z,99451.97
2022-09-26T01:20:20.998Z,99468.63
2022-09-26T01:21:34.810Z,99471.25
2022-09-26T01:22:55.041Z,99472.19
2022-09-26T01:24:20.368Z,99423.78
2022-09-26T01:25:34.170Z,99474.84
2022-09-26T01:27:00.605Z,99470.69
2022-09-26T01:28:30.373Z,99469.81
2022-09-26T01:29:42.452Z,99475.22
2022-09-26T01:31:12.520Z,99471.84
2022-09-26T01:32:51.209Z,99468.41
2022-09-26T01:34:04.941Z,99467.50
2022-09-26T01:35:19.346Z,99483.72
2022-09-26T01:36:33.524Z,99493.56
2022-09-26T01:38:03.480Z,99467.13
2022-09-26T01:39:13.951Z,99476.13
2022-09-26T01:40:26.386Z,99467.44
2022-09-26T01:41:34.029Z,99471.84
2022-09-26T01:42:38.426Z,99469.22
2022-09-26T01:44:02.100Z,99464.75
2022-09-26T01:45:22.751Z,99467.19
2022-09-26T01:46:29.254Z,99465.47
2022-09-26T01:47:41.554Z,99379.84
2022-09-26T01:48:48.733Z,99459.66
2022-09-26T01:50:17.904Z,99464.34
2022-09-26T01:51:58.781Z,99460.66
2022-09-26T01:53:12.699Z,99476.75
2022-09-26T01:54:21.630Z,99459.38
2022-09-26T01:55:28.491Z,99457.13
2022-09-26T01:56:37.763Z,99420.03
2022-09-26T01:57:48.468Z,99450.06
2022-09-26T01:58:57.220Z,99425.06
2022-09-26T02:00:05.896Z,99441.50
2022-09-26T02:01:11.973Z,99431.78
2022-09-26T02:02:28.334Z,99445.97
2022-09-26T02:03:38.304Z,99434.19
2022-09-26T02:04:48.512Z,99447.06
2022-09-26T02:06:00.437Z,99422.00
2022-09-26T02:07:16.841Z,99422.22
2022-09-26T02:08:28.073Z,99391.03
2022-09-26T02:09:48.800Z,99427.53
2022-09-26T02:11:21.775Z,99423.09
2022-09-26T02:12:32.734Z,99455.34
2022-09-26T02:13:43.634Z,99374.38
2022-09-26T02:14:48.083Z,99434.81
2022-09-26T02:15:56.190Z,99434.94
2022-09-26T02:17:07.777Z,99409.56
2022-09-26T02:18:20.962Z,99420.34
2022-09-26T02:19:29.799Z,99433.81
2022-09-26T02:20:39.265Z,99370.06
2022-09-26T02:21:42.424Z,99436.56
2022-09-26T02:22:44.531Z,99418.94
2022-09-26T02:23:49.952Z,99416.16
2022-09-26T02:24:55.516Z,99426.97
2022-09-26T02:26:00.023Z,99429.59
2022-09-26T02:27:02.609Z,99384.72
2022-09-26T02:28:04.888Z,99378.94
2022-09-26T02:29:07.958Z,99367.16
2022-09-26T02:30:10.023Z,99385.72
2022-09-26T02:31:20.922Z,99432.63
2022-09-26T02:32:30.205Z,99408.31
2022-09-26T02:33:36.317Z,99311.41
2022-09-26T02:34:40.237Z,99412.47
2022-09-26T02:35:54.917Z,99406.53
2022-09-26T02:36:57.479Z,99431.88
2022-09-26T02:38:00.393Z,99439.16
2022-09-26T02:39:02.235Z,99379.59
2022-09-26T02:40:04.069Z,99311.19
2022-09-26T02:41:32.597Z,99395.75
2022-09-26T02:42:43.519Z,99368.00
2022-09-26T02:44:05.337Z,99395.41
2022-09-26T02:45:33.827Z,99404.84
2022-09-26T02:46:41.464Z,99405.75
2022-09-26T02:48:19.440Z,99397.16
2022-09-26T02:49:29.715Z,99402.16
2022-09-26T02:51:01.840Z,99377.81
2022-09-26T02:52:49.973Z,99397.16
2022-09-26T02:54:04.945Z,99362.50
2022-09-26T02:55:22.676Z,99392.91
2022-09-26T02:56:40.915Z,99387.81
2022-09-26T02:58:11.181Z,99390.03
2022-09-26T02:59:22.500Z,99386.00
2022-09-26T03:00:31.714Z,99360.47
2022-09-26T03:02:02.945Z,99378.44
2022-09-26T03:03:18.047Z,99367.09
2022-09-26T03:04:39.482Z,99375.13
2022-09-26T03:05:48.888Z,99344.50
2022-09-26T03:06:55.593Z,99320.44
2022-09-26T03:08:09.569Z,99348.53
2022-09-26T03:09:13.128Z,99348.69
2022-09-26T03:10:16.637Z,99363.75
2022-09-26T03:11:25.857Z,99339.78
2022-09-26T03:12:30.769Z,99369.41
2022-09-26T03:13:39.011Z,99363.34
2022-09-26T03:14:45.594Z,99335.63
2022-09-26T03:15:53.936Z,99353.53
2022-09-26T03:16:56.265Z,99348.53
2022-09-26T03:17:59.278Z,99358.69
2022-09-26T03:19:10.843Z,99362.84
2022-09-26T03:20:18.618Z,99361.22
2022-09-26T03:21:21.534Z,99347.97
2022-09-26T03:22:23.155Z,99364.19
2022-09-26T03:23:26.405Z,99263.72
2022-09-26T03:24:28.733Z,99387.97
2022-09-26T03:25:31.084Z,99355.56
2022-09-26T03:26:34.132Z,99346.00
2022-09-26T03:27:39.122Z,99327.78
2022-09-26T03:28:53.503Z,99359.91
2022-09-26T03:29:57.632Z,99297.44
2022-09-26T03:30:59.782Z,99317.72
2022-09-26T03:32:05.255Z,99351.69
2022-09-26T03:33:09.750Z,99362.09
2022-09-26T03:34:11.798Z,99265.34
2022-09-26T03:35:16.352Z,99357.91
2022-09-26T03:36:24.059Z,99290.81
2022-09-26T03:37:25.814Z,99344.88
2022-09-26T03:38:27.830Z,99350.88
2022-09-26T03:39:29.521Z,99360.75
2022-09-26T03:40:33.508Z,99343.44
2022-09-26T03:41:35.363Z,99313.25
2022-09-26T03:42:40.150Z,99293.63
2022-09-26T03:43:43.730Z,99329.97
2022-09-26T03:44:45.407Z,99326.88
2022-09-26T03:45:47.229Z,99329.63
2022-09-26T03:46:49.044Z,99305.56
2022-09-26T03:47:57.193Z,99311.38
2022-09-26T03:48:59.069Z,99342.09
2022-09-26T03:50:05.567Z,99276.84
2022-09-26T03:51:10.284Z,99307.75
2022-09-26T03:52:16.367Z,99328.06
2022-09-26T03:53:18.851Z,99245.91
2022-09-26T03:54:20.504Z,99281.50
2022-09-26T03:55:22.412Z,99322.06
2022-09-26T03:56:27.192Z,99310.00
2022-09-26T03:57:28.742Z,99282.78
2022-09-26T03:58:30.365Z,99308.59
2022-09-26T03:59:37.734Z,99277.63
2022-09-26T04:00:39.969Z,99321.72
2022-09-26T04:01:41.945Z,99224.66
2022-09-26T04:02:44.527Z,99291.09
2022-09-26T04:03:51.070Z,99307.59
2022-09-26T04:04:53.932Z,99229.69
2022-09-26T04:05:56.465Z,99305.06
2022-09-26T04:06:58.975Z,99283.97
2022-09-26T04:08:04.021Z,99327.41
2022-09-26T04:09:12.058Z,99313.16
2022-09-26T04:10:17.591Z,99269.22
2022-09-26T04:11:21.955Z,99292.09
2022-09-26T04:12:23.530Z,99265.19
2022-09-26T04:13:50.202Z,99263.66
2022-09-26T04:14:48.312Z,99265.03
2022-09-26T04:15:56.055Z,99269.22
2022-09-26T04:16:58.523Z,99269.66
2022-09-26T04:18:06.127Z,99291.16
2022-09-26T04:19:07.696Z,99275.91
2022-09-26T04:20:10.056Z,99302.09
2022-09-26T04:21:16.028Z,99282.56
2022-09-26T04:22:23.324Z,99285.25
2022-09-26T04:23:29.196Z,99263.28
2022-09-26T04:24:34.107Z,99256.53
2022-09-26T04:25:37.947Z,99294.16
2022-09-26T04:26:41.572Z,99276.41
2022-09-26T04:27:48.172Z,99183.84
2022-09-26T04:28:54.865Z,99287.38
2022-09-26T04:29:57.304Z,99291.88
2022-09-26T04:31:00.481Z,99184.72
2022-09-26T04:32:02.692Z,99256.31
2022-09-26T04:33:07.931Z,99162.44
2022-09-26T04:34:16.799Z,99290.72
2022-09-26T04:35:19.031Z,99264.38
2022-09-26T04:36:25.794Z,99248.97
2022-09-26T04:37:28.689Z,99274.03
2022-09-26T04:38:34.148Z,99261.78
2022-09-26T04:39:36.189Z,99253.59
2022-09-26T04:40:43.938Z,99295.66
2022-09-26T04:41:48.451Z,99209.75
2022-09-26T04:42:50.074Z,99270.25
2022-09-26T04:43:54.071Z,99253.53
2022-09-26T04:44:56.501Z,99237.16
2022-09-26T04:45:58.226Z,99191.25
2022-09-26T04:47:05.105Z,99242.94
2022-09-26T04:48:07.892Z,99274.00
2022-09-26T04:49:09.730Z,99247.38
2022-09-26T04:50:11.663Z,99259.91
2022-09-26T04:51:15.323Z,99218.16
2022-09-26T04:52:16.937Z,99186.84
2022-09-26T04:53:24.327Z,99178.88
2022-09-26T04:54:28.745Z,99229.66
2022-09-26T04:55:30.665Z,99256.50
2022-09-26T04:56:32.553Z,99163.16
2022-09-26T04:57:34.760Z,99213.66
2022-09-26T04:58:42.084Z,99247.44
2022-09-26T04:59:43.703Z,99268.69
2022-09-26T05:00:52.596Z,99172.72
2022-09-26T05:02:03.076Z,99144.03
2022-09-26T05:03:05.098Z,99230.38
2022-09-26T05:04:10.121Z,99180.13
2022-09-26T05:05:14.350Z,99143.78
2022-09-26T05:06:22.510Z,99150.34
2022-09-26T05:07:29.472Z,99221.91
2022-09-26T05:08:38.657Z,99207.72
2022-09-26T05:09:45.726Z,99180.81
2022-09-26T05:10:56.940Z,99158.44
2022-09-26T05:11:58.705Z,99233.13
2022-09-26T05:13:03.603Z,99271.22
2022-09-26T05:14:05.342Z,99161.28
2022-09-26T05:15:12.517Z,99173.72
2022-09-26T05:16:17.274Z,99265.31
2022-09-26T05:17:31.184Z,99217.28
2022-09-26T05:18:42.333Z,99228.84
2022-09-26T05:19:47.388Z,99234.28
2022-09-26T05:20:50.930Z,99230.34
2022-09-26T05:21:58.260Z,99233.81
2022-09-26T05:23:07.001Z,99147.94
2022-09-26T05:24:27.669Z,99238.84
2022-09-26T05:25:56.354Z,99223.66
2022-09-26T05:27:02.053Z,99212.28
2022-09-26T05:28:04.681Z,99127.53
2022-09-26T05:29:09.048Z,99252.78
2022-09-26T05:30:13.205Z,99176.19
2022-09-26T05:31:16.886Z,99229.69
2022-09-26T05:32:21.316Z,99234.63
2022-09-26T05:33:23.120Z,99240.03
2022-09-26T05:34:40.226Z,99169.03
2022-09-26T05:35:45.019Z,99196.94
2022-09-26T05:36:47.793Z,99228.19
2022-09-26T05:37:59.649Z,99235.72
2022-09-26T05:39:02.390Z,99242.13
2022-09-26T05:40:28.585Z,99115.09
2022-09-26T05:41:40.595Z,99199.72
2022-09-26T05:42:45.314Z,99200.63
2022-09-26T05:43:52.144Z,99233.91
2022-09-26T05:44:54.005Z,99159.53
2022-09-26T05:46:00.915Z,99205.53
2022-09-26T05:47:05.838Z,99241.22
2022-09-26T05:48:07.636Z,99176.47
2022-09-26T05:49:11.207Z,99226.72
2022-09-26T05:50:12.995Z,99218.56
2022-09-26T05:51:16.900Z,99191.91
2022-09-26T05:52:18.709Z,99252.53
2022-09-26T05:53:20.571Z,99206.22
2022-09-26T05:54:25.152Z,99227.69
2022-09-26T05:55:31.348Z,99195.41
2022-09-26T05:56:33.686Z,99225.78
2022-09-26T05:57:35.443Z,99219.47
2022-09-26T05:58:48.178Z,99233.88
2022-09-26T05:59:51.391Z,99156.81
2022-09-26T06:00:54.156Z,99207.16
2022-09-26T06:01:58.328Z,99202.94
2022-09-26T06:03:06.125Z,99208.00
2022-09-26T06:04:13.602Z,99227.31
2022-09-26T06:05:15.666Z,99180.75
2022-09-26T06:06:19.564Z,99148.84
2022-09-26T06:07:24.169Z,99198.13
2022-09-26T06:08:26.066Z,99233.81
2022-09-26T06:09:28.010Z,99235.09
2022-09-26T06:10:30.523Z,99195.88
2022-09-26T06:11:32.257Z,99167.69
2022-09-26T06:12:35.172Z,99194.13
2022-09-26T06:13:41.404Z,99178.56
2022-09-26T06:14:46.779Z,99212.19
2022-09-26T06:15:52.091Z,99208.88
2022-09-26T06:16:56.684Z,99215.34
2022-09-26T06:18:09.693Z,99188.59
2022-09-26T06:19:17.495Z,99175.13
2022-09-26T06:20:29.441Z,99145.53
2022-09-26T06:21:34.673Z,99165.16
2022-09-26T06:22:43.014Z,99190.81
2022-09-26T06:23:47.597Z,99123.31
2022-09-26T06:24:50.289Z,99214.09
2022-09-26T06:25:54.988Z,99175.34
2022-09-26T06:26:56.547Z,99170.03
2022-09-26T06:28:00.595Z,99127.47
2022-09-26T06:29:04.842Z,99206.06
2022-09-26T06:30:11.111Z,99220.38
2022-09-26T06:31:16.791Z,99200.56
2022-09-26T06:32:21.513Z,99192.09
2022-09-26T06:33:31.108Z,99144.09
2022-09-26T06:34:37.810Z,99185.47
2022-09-26T06:35:39.965Z,99180.16
2022-09-26T06:36:41.693Z,99185.19
2022-09-26T06:37:46.299Z,99220.72
2022-09-26T06:38:49.648Z,99220.47
2022-09-26T06:39:54.638Z,99165.72
2022-09-26T06:41:01.824Z,99215.25
2022-09-26T06:42:09.027Z,99208.94
2022-09-26T06:43:10.876Z,99189.91
2022-09-26T06:44:12.977Z,99167.09
2022-09-26T06:45:17.837Z,99183.34
2022-09-26T06:46:24.881Z,99164.75
2022-09-26T06:47:29.025Z,99207.47
2022-09-26T06:48:30.895Z,99183.13
2022-09-26T06:49:34.080Z,99166.88
2022-09-26T06:50:35.771Z,99185.97
2022-09-26T06:51:40.257Z,99088.31
2022-09-26T06:52:47.149Z,99219.22
2022-09-26T06:53:54.025Z,99188.13
2022-09-26T06:54:55.898Z,99059.06
2022-09-26T06:56:08.186Z,99148.75
2022-09-26T06:57:15.222Z,99135.84
2022-09-26T06:58:22.972Z,99210.28
2022-09-26T06:59:27.293Z,99174.69
2022-09-26T07:00:35.565Z,99200.41
2022-09-26T07:01:39.767Z,99177.78
2022-09-26T07:02:55.008Z,99176.53
2022-09-26T07:03:59.653Z,99092.50
2022-09-26T07:05:02.691Z,99180.53
2022-09-26T07:06:05.045Z,99193.59
2022-09-26T07:07:06.691Z,99213.81
2022-09-26T07:08:08.344Z,99103.63
2022-09-26T07:09:13.060Z,99128.91
2022-09-26T07:10:21.171Z,99162.34
2022-09-26T07:12:49.674Z,99171.53
2022-09-26T07:13:56.381Z,99191.09
2022-09-26T07:14:59.722Z,99165.94
2022-09-26T07:16:01.769Z,99179.09
2022-09-26T07:17:03.930Z,99165.31
2022-09-26T07:18:06.865Z,99171.63
2022-09-26T07:19:11.708Z,99180.00
2022-09-26T07:20:16.472Z,99173.19
2022-09-26T07:21:18.114Z,99133.81
2022-09-26T07:22:19.788Z,99109.38
2022-09-26T07:23:24.548Z,99211.53
2022-09-26T07:24:28.075Z,99100.03
2022-09-26T07:25:33.443Z,99079.22
2022-09-26T07:26:36.287Z,99088.59
2022-09-26T07:27:41.578Z,99161.59
2022-09-26T07:28:54.334Z,99112.97
2022-09-26T07:29:59.312Z,99061.09
2022-09-26T07:31:01.612Z,99167.69
2022-09-26T07:32:03.523Z,99185.16
2022-09-26T07:33:06.129Z,99166.44
2022-09-26T07:34:08.892Z,99182.19
2022-09-26T07:35:11.655Z,99148.78
2022-09-26T07:36:13.607Z,99072.94
2022-09-26T07:37:17.350Z,99165.84
2022-09-26T07:38:25.118Z,99166.25
2022-09-26T07:39:26.671Z,99083.31
2022-09-26T07:40:28.825Z,99184.09
2022-09-26T07:41:31.280Z,99123.47
2022-09-26T07:42:34.234Z,99063.19
2022-09-26T07:44:46.155Z,99166.88
2022-09-26T07:46:50.273Z,99178.47
2022-09-26T07:48:19.451Z,99133.94
2022-09-26T07:49:48.775Z,99147.06
2022-09-26T07:50:59.778Z,99152.09
2022-09-26T07:52:01.961Z,99108.75
2022-09-26T07:53:09.652Z,99052.06
2022-09-26T07:54:13.398Z,99069.06
2022-09-26T07:55:17.842Z,99106.78
2022-09-26T07:56:29.065Z,99150.44
2022-09-26T07:57:41.440Z,99122.09
2022-09-26T07:58:46.486Z,99114.66
2022-09-26T07:59:50.561Z,99085.66
2022-09-26T08:00:52.347Z,99158.03
2022-09-26T08:01:54.685Z,99076.38
2022-09-26T08:03:01.542Z,99036.81
2022-09-26T08:04:06.447Z,99144.22
2022-09-26T08:05:10.849Z,99112.25
2022-09-26T08:06:20.190Z,99119.97
2022-09-26T08:07:22.878Z,99106.44
2022-09-26T08:08:27.604Z,99065.75
2022-09-26T08:09:30.667Z,99116.81
2022-09-26T08:10:35.520Z,99145.50
2022-09-26T08:11:48.690Z,99094.91
2022-09-26T08:12:50.748Z,99145.59
2022-09-26T08:13:56.703Z,99137.31
2022-09-26T08:15:10.024Z,99129.09
2022-09-26T08:16:27.458Z,99096.50
2022-09-26T08:17:32.575Z,99111.88
2022-09-26T08:18:36.497Z,99117.53
2022-09-26T08:19:43.259Z,99141.94
2022-09-26T08:20:55.914Z,99125.66
2022-09-26T08:22:02.674Z,99126.34
2022-09-26T08:23:11.549Z,99086.97
2022-09-26T08:24:15.302Z,99083.63
2022-09-26T08:25:29.429Z,99112.88
2022-09-26T08:26:44.431Z,99082.94
2022-09-26T08:27:53.662Z,99055.91
2022-09-26T08:28:55.331Z,99126.66
2022-09-26T08:29:59.406Z,99095.06
2022-09-26T08:31:05.470Z,99119.09
2022-09-26T08:32:08.160Z,99122.34
2022-09-26T08:33:12.809Z,99118.63
2022-09-26T08:34:14.871Z,99129.63
2022-09-26T08:35:18.502Z,99105.66
2022-09-26T08:36:21.053Z,99128.66
2022-09-26T08:37:29.729Z,99102.13
2022-09-26T08:38:31.366Z,99106.81
2022-09-26T08:39:43.171Z,99052.03
2022-09-26T08:41:35.042Z,99018.31
2022-09-26T08:43:10.268Z,99057.06
2022-09-26T08:44:36.906Z,99088.84
2022-09-26T08:46:11.434Z,99080.34
2022-09-26T08:47:49.521Z,99105.19
2022-09-26T08:49:34.730Z,99092.03
2022-09-26T08:50:51.290Z,99104.84
2022-09-26T08:51:59.830Z,99079.84
2022-09-26T08:53:07.505Z,99095.00
2022-09-26T08:54:37.654Z,99098.34
2022-09-26T08:55:50.719Z,99083.13
2022-09-26T08:57:07.700Z,99089.91
2022-09-26T08:58:47.234Z,99094.75
2022-09-26T08:59:49.230Z,99071.34
2022-09-26T09:00:59.212Z,99078.34
2022-09-26T09:02:18.220Z,99020.97
2022-09-26T09:03:35.608Z,99004.47
2022-09-26T09:04:51.543Z,99089.56
2022-09-26T09:06:18.482Z,99098.25
2022-09-26T09:07:35.420Z,99073.06
2022-09-26T09:09:01.452Z,99088.84
2022-09-26T09:10:09.712Z,99085.94
2022-09-26T09:11:35.581Z,99101.09
2022-09-26T09:12:37.281Z,99096.94
2022-09-26T09:14:06.130Z,99101.63
2022-09-26T09:15:32.542Z,99097.81
2022-09-26T09:17:03.519Z,99059.19
2022-09-26T09:18:21.711Z,99086.94
2022-09-26T09:19:44.154Z,99093.50
2022-09-26T09:21:01.024Z,99091.66
2022-09-26T09:22:44.934Z,99089.88
2022-09-26T09:23:49.877Z,99084.72
2022-09-26T09:25:03.313Z,99081.91
2022-09-26T09:28:00.105Z,99078.28
2022-09-26T09:29:49.405Z,99073.22
2022-09-26T09:30:54.020Z,99077.88
2022-09-26T09:32:00.470Z,99072.78
2022-09-26T09:33:37.836Z,99047.69
2022-09-26T09:34:48.005Z,99062.72
2022-09-26T09:35:57.529Z,99070.06
2022-09-26T09:37:34.221Z,99042.22
2022-09-26T09:38:45.791Z,99016.22
2022-09-26T09:39:52.477Z,99047.34
2022-09-26T09:41:04.508Z,99060.75
2022-09-26T09:42:49.945Z,99073.16
2022-09-26T09:43:55.775Z,99051.78
2022-09-26T09:45:20.611Z,99007.00
2022-09-26T09:46:40.484Z,99064.34
2022-09-26T09:47:42.628Z,99056.19
2022-09-26T09:48:48.502Z,99020.94
2022-09-26T09:49:51.753Z,99035.13
2022-09-26T09:51:35.555Z,99044.69
2022-09-26T09:52:54.030Z,99045.91
2022-09-26T09:54:22.452Z,99031.66
2022-09-26T09:55:47.839Z,99037.13
2022-09-26T09:57:23.588Z,99034.59
2022-09-26T09:58:53.191Z,99042.38
2022-09-26T09:59:58.553Z,99042.47
2022-09-26T10:01:33.273Z,99020.59
2022-09-26T10:03:11.672Z,99038.34
2022-09-26T10:04:30.504Z,99038.25
2022-09-26T10:05:47.198Z,99041.31
2022-09-26T10:06:51.699Z,99038.56
2022-09-26T10:07:58.380Z,99018.28
2022-09-26T10:09:38.505Z,98955.47
2022-09-26T10:10:49.160Z,99022.97
2022-09-26T10:11:57.030Z,99019.47
2022-09-26T10:12:58.682Z,99012.38
2022-09-26T10:14:13.274Z,99007.56
2022-09-26T10:15:27.355Z,99031.69
2022-09-26T10:16:32.181Z,99014.94
2022-09-26T10:17:33.960Z,99032.66
2022-09-26T10:19:00.815Z,99009.66
2022-09-26T10:20:04.935Z,99008.78
2022-09-26T10:21:17.909Z,98985.78
2022-09-26T10:22:29.962Z,99018.31
2022-09-26T10:23:37.533Z,99018.03
2022-09-26T10:24:46.756Z,99037.16
2022-09-26T10:25:51.915Z,99005.81
2022-09-26T10:26:56.956Z,98984.03
2022-09-26T10:28:02.886Z,99009.84
2022-09-26T10:29:21.320Z,99009.34
2022-09-26T10:30:26.737Z,99001.97
2022-09-26T10:31:43.793Z,99003.47
2022-09-26T10:32:55.559Z,99023.78
2022-09-26T10:34:01.318Z,99004.81
2022-09-26T10:35:29.872Z,98978.00
2022-09-26T10:36:37.951Z,99004.94
2022-09-26T10:37:53.453Z,98968.81
2022-09-26T10:39:38.338Z,98993.91
2022-09-26T10:41:00.960Z,98968.75
2022-09-26T10:42:05.123Z,98879.53
2022-09-26T10:43:35.157Z,98954.88
2022-09-26T10:44:41.355Z,99001.50
2022-09-26T10:45:44.679Z,98867.97
2022-09-26T10:46:50.277Z,98968.84
2022-09-26T10:47:59.502Z,98956.53
2022-09-26T10:49:03.448Z,98950.72
2022-09-26T10:50:17.529Z,98973.25
2022-09-26T10:51:41.267Z,98975.28
2022-09-26T10:52:53.604Z,98971.31
2022-09-26T10:54:32.907Z,98970.75
2022-09-26T10:56:05.617Z,98975.25
2022-09-26T10:57:09.665Z,98975.81
2022-09-26T10:58:24.463Z,98964.38
2022-09-26T10:59:31.813Z,98961.03
2022-09-26T11:00:33.408Z,98967.72
2022-09-26T11:01:43.374Z,98936.56
2022-09-26T11:02:57.277Z,98965.34
2022-09-26T11:04:13.162Z,98976.50
2022-09-26T11:05:35.346Z,98955.97
2022-09-26T11:06:43.979Z,98974.06
2022-09-26T11:07:49.397Z,98966.88
2022-09-26T11:09:04.826Z,98962.28
2022-09-26T11:10:11.473Z,98950.25
2022-09-26T11:11:16.898Z,98904.22
2022-09-26T11:12:23.997Z,98962.28
2022-09-26T11:13:38.986Z,98906.88
2022-09-26T11:14:47.360Z,98950.56
2022-09-26T11:16:14.022Z,98950.97
2022-09-26T11:17:19.344Z,98959.53
2022-09-26T11:19:02.658Z,98935.69
2022-09-26T11:20:16.959Z,98841.28
2022-09-26T11:21:30.594Z,98899.81
2022-09-26T11:22:45.316Z,98938.84
2022-09-26T11:24:03.009Z,98924.44
2022-09-26T11:25:25.149Z,98930.13
2022-09-26T11:26:43.687Z,98865.63
2022-09-26T11:27:54.646Z,98867.50
2022-09-26T11:29:17.999Z,98914.94
2022-09-26T11:30:21.719Z,98910.28
2022-09-26T11:31:29.972Z,98860.97
2022-09-26T11:32:45.118Z,98896.31
2022-09-26T11:33:52.196Z,98926.53
2022-09-26T11:34:54.504Z,98898.28
2022-09-26T11:36:27.419Z,98927.91
2022-09-26T11:37:59.215Z,98902.59
2022-09-26T11:39:11.800Z,98920.06
2022-09-26T11:40:18.790Z,98914.56
2022-09-26T11:41:38.532Z,98905.16
2022-09-26T11:43:02.916Z,98923.34
2022-09-26T11:44:17.398Z,98849.75
2022-09-26T11:45:47.488Z,98914.16
2022-09-26T11:47:37.269Z,98918.88
2022-09-26T11:48:58.074Z,98923.91
2022-09-26T11:50:05.365Z,98937.88
2022-09-26T11:51:45.743Z,98947.75
2022-09-26T11:53:47.629Z,98924.47
2022-09-26T11:55:01.051Z,98927.09
2022-09-26T11:56:52.608Z,98854.97
2022-09-26T11:58:13.791Z,98897.59
2022-09-26T11:59:47.580Z,98922.84
2022-09-26T12:01:16.582Z,98891.44
2022-09-26T12:02:43.107Z,98903.09
2022-09-26T12:04:12.175Z,98901.91
2022-09-26T12:05:34.002Z,98870.94
2022-09-26T12:06:47.715Z,98901.63
2022-09-26T12:08:17.388Z,98899.56
2022-09-26T12:09:45.369Z,98891.47
2022-09-26T12:11:00.453Z,98880.03
2022-09-26T12:12:13.477Z,98878.09
2022-09-26T12:13:49.332Z,98880.13
2022-09-26T12:15:11.130Z,98877.38
2022-09-26T12:16:22.118Z,98876.25
2022-09-26T12:17:44.008Z,98865.94
2022-09-26T12:19:16.454Z,98871.09
2022-09-26T12:20:45.444Z,98864.81
2022-09-26T12:22:15.701Z,98863.38
2022-09-26T12:23:30.183Z,98872.34
2022-09-26T12:25:00.764Z,98865.97
2022-09-26T12:26:34.785Z,98812.44
2022-09-26T12:28:01.072Z,98864.44
2022-09-26T12:29:38.532Z,98853.13
2022-09-26T12:30:52.679Z,98867.63
2022-09-26T12:32:15.993Z,98858.88
2022-09-26T12:33:46.877Z,98859.44
2022-09-26T12:35:07.926Z,98852.69
2022-09-26T12:36:09.663Z,98853.63
2022-09-26T12:37:57.669Z,98813.47
2022-09-26T12:39:39.853Z,98849.72
2022-09-26T12:41:02.641Z,98806.72
2022-09-26T12:42:48.592Z,98846.13
2022-09-26T12:44:25.513Z,98788.59
2022-09-26T12:45:49.568Z,98837.78
2022-09-26T12:47:18.797Z,98829.72
2022-09-26T12:48:41.136Z,98762.28
2022-09-26T12:50:02.430Z,98829.91
2022-09-26T12:51:44.175Z,98825.41
2022-09-26T12:52:54.805Z,98827.88
2022-09-26T12:54:22.267Z,98816.44
2022-09-26T12:55:54.411Z,98816.97
2022-09-26T12:57:14.401Z,98844.00
2022-09-26T12:58:31.836Z,98826.59
2022-09-26T12:59:49.754Z,98827.94
2022-09-26T13:01:12.247Z,98833.06
2022-09-26T13:02:32.457Z,98836.44
2022-09-26T13:04:03.970Z,98836.88
2022-09-26T13:05:43.260Z,98844.88
2022-09-26T13:07:25.107Z,98845.47
2022-09-26T13:09:26.000Z,98739.00
2022-09-26T13:10:48.149Z,98843.91
2022-09-26T13:12:04.168Z,98834.34
2022-09-26T13:13:31.822Z,98836.09
2022-09-26T13:15:26.147Z,98807.16
2022-09-26T13:17:06.292Z,98817.03
2022-09-26T13:18:15.923Z,98821.25
2022-09-26T13:19:36.691Z,98813.59
2022-09-26T13:20:44.443Z,98769.38
2022-09-26T13:21:56.761Z,98791.16
2022-09-26T13:23:02.285Z,98815.16
2022-09-26T13:24:15.309Z,98804.78
2022-09-26T13:25:22.407Z,98805.75
2022-09-26T13:26:29.533Z,98803.34
2022-09-26T13:27:38.995Z,98813.13
2022-09-26T13:29:06.482Z,98709.38
2022-09-26T13:30:26.617Z,98798.47
2022-09-26T13:31:38.244Z,98783.78
2022-09-26T13:32:49.206Z,98752.53
2022-09-26T13:34:05.154Z,98784.63
2022-09-26T13:35:29.981Z,98780.78
2022-09-26T13:36:34.079Z,98806.22
2022-09-26T13:38:11.680Z,98787.25
2022-09-26T13:40:02.701Z,98784.66
2022-09-26T13:41:13.457Z,98785.25
2022-09-26T13:42:26.297Z,98710.75
2022-09-26T13:43:34.299Z,98780.34
2022-09-26T13:45:08.936Z,98786.91
2022-09-26T13:46:22.217Z,98791.81
2022-09-26T13:47:49.123Z,98759.75
2022-09-26T13:49:04.865Z,98779.19
2022-09-26T13:50:55.560Z,98781.19
2022-09-26T13:52:27.678Z,98762.41
2022-09-26T13:53:40.503Z,98771.63
2022-09-26T13:55:22.715Z,98760.34
2022-09-26T13:56:34.768Z,98786.16
2022-09-26T13:58:07.474Z,98746.31
2022-09-26T13:59:11.772Z,98754.63
2022-09-26T14:00:31.758Z,98760.31
2022-09-26T14:01:33.861Z,98754.44
2022-09-26T14:02:35.528Z,98766.16
2022-09-26T14:03:39.107Z,98752.03
2022-09-26T14:04:40.798Z,98684.16
2022-09-26T14:05:42.341Z,98747.59